createdAt,value
2023-04-13T00:01:09.891Z,90.18
2023-04-13T00:05:12.406Z,89.63
2023-04-13T00:07:13.662Z,89.83
2023-04-13T00:11:17.113Z,90
2023-04-13T00:13:18.596Z,89.91
2023-04-13T00:15:20.253Z,90.02
2023-04-13T00:17:22.157Z,89.92
2023-04-13T00:21:24.543Z,89.53
2023-04-13T00:23:26.422Z,89.56
2023-04-13T00:25:27.668Z,89.27
2023-04-13T00:27:28.925Z,89.39
2023-04-13T00:29:29.946Z,89.61
2023-04-13T00:33:33.625Z,89.65
2023-04-13T00:35:35.115Z,89.77
2023-04-13T00:37:36.555Z,89.61
2023-04-13T00:39:37.960Z,89.6
2023-04-13T00:43:40.412Z,89.75
2023-04-13T00:45:41.934Z,89.82
2023-04-13T00:49:45.183Z,89.7
2023-04-13T00:53:47.454Z,89.8
2023-04-13T00:55:48.487Z,89.47
2023-04-13T00:59:51.579Z,89.23
2023-04-13T01:03:53.985Z,88.29
2023-04-13T01:05:55.468Z,88.35
2023-04-13T01:09:58.928Z,88
2023-04-13T01:12:00.600Z,88.11
2023-04-13T01:16:04.284Z,88.09
2023-04-13T01:20:06.124Z,87.69
2023-04-13T01:22:07.373Z,86.83
2023-04-13T01:26:09.693Z,87.02
2023-04-13T01:28:10.855Z,86.66
2023-04-13T01:32:14.099Z,86.2
2023-04-13T01:36:17.072Z,86.35
2023-04-13T01:38:18.802Z,86.31
2023-04-13T01:42:21.456Z,86.01
2023-04-13T01:46:24.928Z,86.47
2023-04-13T01:48:26.470Z,86.07
2023-04-13T01:52:29.674Z,83.9
2023-04-13T01:54:31.493Z,84.3
2023-04-13T01:58:34.410Z,84.59
2023-04-13T02:02:37.132Z,84.49
2023-04-13T02:04:38.765Z,84.41
2023-04-13T02:08:41.879Z,84.83
2023-04-13T02:10:43.589Z,84.16
2023-04-13T02:14:46.088Z,83.18
2023-04-13T02:18:49.453Z,81.73
2023-04-13T02:20:50.615Z,81.39
2023-04-13T02:24:53.980Z,80.8
2023-04-13T02:28:56.490Z,79.49
2023-04-13T02:30:58.263Z,79.49
2023-04-13T02:35:00.770Z,79.63
2023-04-13T02:37:02.258Z,79.46
2023-04-13T02:41:06.062Z,79.07
2023-04-13T02:45:10.013Z,77.89
2023-04-13T02:47:10.966Z,77.47
2023-04-13T02:51:13.209Z,78.75
2023-04-13T02:53:15.114Z,78.49
2023-04-13T02:57:17.915Z,78.72
2023-04-13T03:01:20.970Z,78.07
2023-04-13T03:03:23.139Z,78.59
2023-04-13T03:07:25.319Z,78.89
2023-04-13T03:11:28.608Z,79.65
2023-04-13T03:13:30.538Z,79.61
2023-04-13T03:17:33.453Z,79.58
2023-04-13T03:19:43.930Z,79.32
2023-04-13T03:21:36.504Z,79.24
2023-04-13T03:23:38.414Z,79.06
2023-04-13T03:27:41.186Z,79.67
2023-04-13T03:29:42.964Z,79.18
2023-04-13T03:31:44.245Z,78.66
2023-04-13T03:33:46.081Z,78.88
2023-04-13T03:35:47.171Z,77.82
2023-04-13T03:39:49.321Z,77.49
2023-04-13T03:41:50.342Z,78.34
2023-04-13T03:43:52.029Z,76.76
2023-04-13T03:45:53.044Z,76.72
2023-04-13T03:49:55.932Z,76.84
2023-04-13T03:51:57.572Z,75.75
2023-04-13T03:56:00.195Z,75.33
2023-04-13T04:00:02.736Z,75.14
2023-04-13T04:02:04.688Z,75.09
2023-04-13T04:06:07.200Z,75.27
2023-04-13T04:10:09.833Z,74.13
2023-04-13T04:12:13.129Z,74.61
2023-04-13T04:16:14.989Z,74.51
2023-04-13T04:18:16.134Z,73.8
2023-04-13T04:22:18.918Z,73.36
2023-04-13T04:26:22.289Z,73.11
2023-04-13T04:28:23.870Z,73.55
2023-04-13T04:32:27.123Z,73.87
2023-04-13T04:34:28.361Z,74.31
2023-04-13T04:38:30.655Z,73.8
2023-04-13T04:42:33.659Z,73.32
2023-04-13T04:44:35.422Z,73.24
2023-04-13T04:48:38.197Z,74.31
2023-04-13T04:50:39.743Z,74.71
2023-04-13T04:54:43.210Z,75.03
2023-04-13T04:58:46.050Z,74.92
2023-04-13T05:00:47.487Z,74.51
2023-04-13T05:03:32.603Z,75.57
2023-04-13T05:05:34.228Z,74.82
2023-04-13T05:09:37.502Z,75.79
2023-04-13T05:11:39.299Z,75.6
2023-04-13T05:15:41.953Z,75.17
2023-04-13T05:19:44.374Z,75.1
2023-04-13T05:21:46.038Z,75.7
2023-04-13T05:25:48.977Z,76.22
2023-04-13T05:29:52.232Z,76.36
2023-04-13T05:31:53.211Z,76.53
2023-04-13T05:35:56.333Z,76.26
2023-04-13T05:37:57.450Z,75.9
2023-04-13T05:42:00.195Z,75.46
2023-04-13T05:46:03.311Z,74.73
2023-04-13T05:48:04.535Z,75.46
2023-04-13T05:52:07.267Z,75.37
2023-04-13T05:54:08.785Z,75.14
2023-04-13T05:58:11.816Z,75.73
2023-04-13T06:02:15.052Z,75.82
2023-04-13T06:04:17.031Z,76.45
2023-04-13T06:08:19.424Z,75.93
2023-04-13T06:12:22.531Z,75.98
2023-04-13T06:14:23.538Z,76.19
2023-04-13T06:18:27.115Z,77.07
2023-04-13T06:20:29.061Z,76.97
2023-04-13T06:22:30.816Z,76.47
2023-04-13T06:24:31.866Z,76.15
2023-04-13T06:28:34.741Z,76.91
2023-04-13T06:30:35.783Z,76.78
2023-04-13T06:32:37.445Z,75.98
2023-04-13T06:34:39.121Z,76.55
2023-04-13T06:36:40.717Z,75.75
2023-04-13T06:40:44.205Z,75.16
2023-04-13T06:44:47.544Z,75.62
2023-04-13T06:46:48.959Z,75.53
2023-04-13T06:50:51.447Z,74.18
2023-04-13T06:56:55.343Z,74.13
2023-04-13T07:00:57.977Z,74.39
2023-04-13T07:02:59.091Z,74.21
2023-04-13T07:07:01.898Z,74.54
2023-04-13T07:11:05.208Z,74.52
2023-04-13T07:13:06.686Z,73.9
2023-04-13T07:17:11.306Z,73.57
2023-04-13T07:19:10.942Z,73.45
2023-04-13T07:23:14.193Z,72.17
2023-04-13T07:27:16.911Z,71.42
2023-04-13T07:29:18.085Z,71.6
2023-04-13T07:33:21.093Z,71.97
2023-04-13T07:35:22.286Z,71.45
2023-04-13T07:39:24.855Z,73.17
2023-04-13T07:43:27.181Z,71.44
2023-04-13T07:45:28.590Z,71.7
2023-04-13T07:49:30.602Z,72.39
2023-04-13T07:53:32.824Z,72.02
2023-04-13T07:55:33.808Z,71.41
2023-04-13T07:59:36.061Z,72.11
2023-04-13T08:01:37.551Z,72.08
2023-04-13T08:03:38.999Z,71.71
2023-04-13T08:05:40.047Z,72.52
2023-04-13T08:09:43.366Z,73.46
2023-04-13T08:11:44.721Z,72.7
2023-04-13T08:15:47.934Z,71.97
2023-04-13T08:17:49.800Z,72.39
2023-04-13T08:21:53.258Z,72.43
2023-04-13T08:25:56.590Z,71.86
2023-04-13T08:27:58.252Z,71.98
2023-04-13T08:32:01.033Z,72.55
2023-04-13T08:36:03.787Z,72.36
2023-04-13T08:38:05.096Z,73.49
2023-04-13T08:42:08.070Z,73.64
2023-04-13T08:44:09.825Z,73.94
2023-04-13T08:46:11.030Z,73.67
2023-04-13T08:48:12.692Z,72.48
2023-04-13T08:52:16.694Z,71.82
2023-04-13T08:54:17.474Z,70.63
2023-04-13T08:56:19.235Z,71.45
2023-04-13T08:58:20.914Z,72.83
2023-04-13T09:00:21.938Z,73.76
2023-04-13T09:04:24.015Z,78.31
2023-04-13T09:06:25.487Z,80.07
2023-04-13T09:08:26.885Z,79.13
2023-04-13T09:10:27.739Z,81.2
2023-04-13T09:14:30.400Z,81.27
2023-04-13T09:18:32.777Z,82.59
2023-04-13T09:20:34.425Z,82.72
2023-04-13T09:24:37.150Z,82.14
2023-04-13T09:26:38.549Z,82.83
2023-04-13T09:28:40.392Z,82.68
2023-04-13T09:30:41.524Z,81.44
2023-04-13T09:32:42.800Z,80.46
2023-04-13T09:36:53.835Z,80.33
2023-04-13T09:38:46.882Z,80.45
2023-04-13T09:40:48.018Z,80.08
2023-04-13T09:42:49.815Z,79.64
2023-04-13T09:46:52.400Z,79.65
2023-04-13T09:48:53.582Z,79.56
2023-04-13T09:52:56.193Z,78.19
2023-04-13T09:56:59.409Z,78.16
2023-04-13T09:59:00.852Z,77.25
2023-04-13T10:03:03.004Z,78.73
2023-04-13T10:07:05.340Z,78.73
2023-04-13T10:09:06.589Z,79.63
2023-04-13T10:13:09.703Z,78.43
2023-04-13T10:15:11.493Z,78.37
2023-04-13T10:19:14.249Z,78.38
2023-04-13T10:23:17.426Z,79.35
2023-04-13T10:25:31.847Z,79.76
2023-04-13T10:29:21.623Z,78.27
2023-04-13T10:31:23.234Z,78.52
2023-04-13T10:35:25.573Z,78.08
2023-04-13T10:39:28.752Z,80.97
2023-04-13T10:41:29.777Z,78.95
2023-04-13T10:45:32.502Z,76.94
2023-04-13T10:49:35.608Z,74.69
2023-04-13T10:51:36.611Z,76.23
2023-04-13T10:55:39.186Z,75.07
2023-04-13T10:57:40.864Z,75.64
2023-04-13T11:01:43.304Z,75.75
2023-04-13T11:05:45.704Z,76.48
2023-04-13T11:07:46.631Z,77.82
2023-04-13T11:11:49.964Z,76.38
2023-04-13T11:13:51.410Z,76.87
2023-04-13T11:17:54.720Z,76.01
2023-04-13T11:21:56.871Z,76.44
2023-04-13T11:23:58.571Z,76.12
2023-04-13T11:28:00.866Z,77.53
2023-04-13T11:32:04.276Z,80.88
2023-04-13T11:34:05.803Z,79.83
2023-04-13T11:38:08.815Z,79.02
2023-04-13T11:40:10.026Z,78.37
2023-04-13T11:42:11.598Z,78.37
2023-04-13T11:44:13.006Z,77.39
2023-04-13T11:46:58.944Z,74.15
2023-04-13T11:49:00.618Z,74.29
2023-04-13T11:51:01.409Z,74.02
2023-04-13T11:55:15.173Z,74.49
2023-04-13T11:59:07.036Z,72.14
2023-04-13T12:01:13.722Z,73.05
2023-04-13T12:05:10.957Z,73.05
2023-04-13T12:07:12.648Z,72.27
2023-04-13T12:11:40.155Z,73.66
2023-04-13T12:15:34.361Z,72.42
2023-04-13T12:17:37.908Z,70.81
2023-04-13T12:21:23.485Z,71.96
2023-04-13T12:25:25.488Z,71.91
2023-04-13T12:27:26.370Z,72.33
2023-04-13T12:31:30.010Z,73.47
2023-04-13T12:33:31.837Z,73.76
2023-04-13T12:37:35.504Z,72.1
2023-04-13T12:41:38.301Z,69.67
2023-04-13T12:43:39.585Z,69.14
2023-04-13T12:47:41.874Z,69.3
2023-04-13T12:49:43.327Z,69.32
2023-04-13T12:53:46.228Z,69.2
2023-04-13T12:57:49.176Z,69.08
2023-04-13T12:59:50.850Z,68.67
2023-04-13T13:03:54.121Z,72.08
2023-04-13T13:07:56.284Z,68.85
2023-04-13T13:09:57.212Z,66.82
2023-04-13T13:13:59.927Z,67.77
2023-04-13T13:16:01.449Z,66.48
2023-04-13T13:20:04.108Z,68.13
2023-04-13T13:24:06.811Z,67.68
2023-04-13T13:26:22.898Z,65
2023-04-13T13:30:11.615Z,66.91
2023-04-13T13:32:13.951Z,67.27
2023-04-13T13:36:16.936Z,69.38
2023-04-13T13:40:19.872Z,72.54
2023-04-13T13:42:20.775Z,76.17
2023-04-13T13:46:23.619Z,81.73
2023-04-13T13:50:26.488Z,84.02
2023-04-13T13:52:28.021Z,83.73
2023-04-13T13:56:31.174Z,83.32
2023-04-13T13:58:32.813Z,82.61
2023-04-13T14:02:36.108Z,77.12
2023-04-13T14:06:40.309Z,74.34
2023-04-13T14:08:42.202Z,73.18
2023-04-13T14:12:46.010Z,75.14
2023-04-13T14:14:46.522Z,72.98
2023-04-13T14:18:50.089Z,69.32
2023-04-13T14:22:53.077Z,68.14
2023-04-13T14:24:54.735Z,69.71
2023-04-13T14:28:57.406Z,67.84
2023-04-13T14:33:00.089Z,69
2023-04-13T14:35:00.971Z,67.88
2023-04-13T14:39:03.493Z,68.11
2023-04-13T14:41:04.841Z,69.16
2023-04-13T14:43:06.603Z,71.32
2023-04-13T14:45:07.585Z,68.43
2023-04-13T14:49:10.062Z,70.04
2023-04-13T14:51:11.885Z,69.89
2023-04-13T14:53:13.660Z,68.76
2023-04-13T14:55:14.871Z,68.96
2023-04-13T14:57:15.894Z,69.04
2023-04-13T15:01:18.571Z,68.5
2023-04-13T15:03:20.141Z,68.8
2023-04-13T15:05:21.977Z,67.89
2023-04-13T15:07:23.320Z,66.53
2023-04-13T15:11:25.329Z,65.78
2023-04-13T15:13:26.390Z,66.49
2023-04-13T15:17:28.458Z,66.16
2023-04-13T15:21:30.983Z,67.76
2023-04-13T15:23:32.510Z,67.18
2023-04-13T15:27:36.000Z,68.21
2023-04-13T15:31:38.199Z,65.89
2023-04-13T15:33:40.116Z,65.57
2023-04-13T15:37:42.531Z,65.8
2023-04-13T15:39:43.688Z,65.96
2023-04-13T15:43:47.206Z,65.19
2023-04-13T15:47:50.749Z,64.64
2023-04-13T15:49:52.292Z,64.85
2023-04-13T15:53:55.205Z,65.13
2023-04-13T15:55:56.508Z,65.72
2023-04-13T15:59:59.217Z,65.04
2023-04-13T16:04:01.978Z,66.59
2023-04-13T16:06:02.719Z,64.32
2023-04-13T16:10:05.002Z,64.67
2023-04-13T16:14:07.796Z,65.64
2023-04-13T16:16:08.985Z,66.1
2023-04-13T16:20:11.948Z,64.63
2023-04-13T16:22:12.985Z,63.73
2023-04-13T16:26:16.054Z,64.14
2023-04-13T16:30:20.865Z,65.79
2023-04-13T16:32:22.655Z,65.21
2023-04-13T16:36:25.832Z,66.88
2023-04-13T16:38:26.835Z,67.93
2023-04-13T16:42:29.983Z,69.88
2023-04-13T16:46:32.755Z,70.25
2023-04-13T16:48:34.091Z,69.82
2023-04-13T16:52:37.010Z,70.4
2023-04-13T16:56:40.290Z,70.32
2023-04-13T16:58:42.057Z,70.14
2023-04-13T17:02:44.527Z,67.32
2023-04-13T17:04:45.853Z,67.1
2023-04-13T17:08:49.305Z,68.74
2023-04-13T17:12:51.500Z,72.95
2023-04-13T17:14:53.914Z,74.51
2023-04-13T17:18:55.660Z,77.36
2023-04-13T17:20:57.239Z,77.22
2023-04-13T17:25:00.422Z,78.71
2023-04-13T17:29:03.415Z,79.87
2023-04-13T17:31:04.887Z,80.8
2023-04-13T17:35:07.148Z,81.3
2023-04-13T17:39:10.223Z,81.78
2023-04-13T17:41:12.096Z,81.94
2023-04-13T17:45:15.429Z,83.21
2023-04-13T17:47:16.651Z,83.51
2023-04-13T17:49:17.814Z,83.72
2023-04-13T17:51:19.771Z,83.92
2023-04-13T17:55:22.436Z,84.51
2023-04-13T17:57:23.655Z,84.43
2023-04-13T17:59:25.318Z,84.85
2023-04-13T18:01:27.060Z,85.18
2023-04-13T18:03:28.920Z,84.7
2023-04-13T18:07:31.949Z,85.52
2023-04-13T18:09:33.919Z,86.1
2023-04-13T18:11:34.989Z,86.58
2023-04-13T18:13:36.274Z,86.45
2023-04-13T18:17:39.851Z,87.43
2023-04-13T18:19:41.676Z,88.39
2023-04-13T18:23:44.159Z,88.39
2023-04-13T18:27:46.889Z,88.36
2023-04-13T18:29:47.926Z,88.69
2023-04-13T18:32:33.268Z,88.81
2023-04-13T18:34:36.222Z,88.94
2023-04-13T18:38:37.720Z,89.7
2023-04-13T18:40:38.850Z,89.68
2023-04-13T18:44:41.728Z,90.15
2023-04-13T18:48:43.970Z,90.58
2023-04-13T18:50:45.237Z,90.27
2023-04-13T18:54:48.191Z,90.4
2023-04-13T18:56:49.677Z,90.27
2023-04-13T19:00:52.482Z,90.26
2023-04-13T19:04:55.317Z,90.44
2023-04-13T19:06:56.732Z,90.63
2023-04-13T19:10:59.199Z,91.1
2023-04-13T19:15:01.980Z,91.6
2023-04-13T19:17:03.834Z,91.71
2023-04-13T19:21:07.210Z,92.49
2023-04-13T19:23:08.550Z,92.36
2023-04-13T19:27:11.638Z,92.02
2023-04-13T19:31:14.968Z,92.4
2023-04-13T19:33:16.579Z,92.38
2023-04-13T19:37:19.896Z,92.19
2023-04-13T19:39:21.265Z,92.21
2023-04-13T19:43:24.201Z,92.19
2023-04-13T19:47:27.226Z,92.25
2023-04-13T19:49:28.830Z,92.41
2023-04-13T19:53:32.090Z,93.64
2023-04-13T19:57:34.395Z,93.45
2023-04-13T19:59:35.782Z,93.4
2023-04-13T20:03:39.164Z,93.36
2023-04-13T20:05:40.433Z,93.29
2023-04-13T20:07:41.925Z,93.28
2023-04-13T20:09:43.476Z,93.51
2023-04-13T20:13:46.970Z,93.19
2023-04-13T20:15:48.097Z,93.65
2023-04-13T20:17:49.626Z,93.82
2023-04-13T20:19:50.873Z,93.71
2023-04-13T20:21:52.669Z,93.86
2023-04-13T20:25:56.328Z,93.92
2023-04-13T20:29:59.409Z,94.35
2023-04-13T20:32:00.966Z,94.32
2023-04-13T20:36:03.987Z,94.29
2023-04-13T20:42:07.620Z,94.12
2023-04-13T20:46:10.514Z,94.17
2023-04-13T20:52:13.890Z,93.75
2023-04-13T20:56:17.453Z,93.79
2023-04-13T20:58:19.039Z,93.95
2023-04-13T21:02:21.534Z,94.38
2023-04-13T21:04:22.952Z,94.71
2023-04-13T21:08:25.277Z,94.69
2023-04-13T21:12:28.856Z,95.01
2023-04-13T21:14:30.541Z,95.49
2023-04-13T21:18:33.634Z,95.25
2023-04-13T21:20:35.520Z,95.26
2023-04-13T21:24:38.640Z,95.49
2023-04-13T21:28:41.687Z,95.3
2023-04-13T21:30:42.934Z,95.2
2023-04-13T21:34:46.586Z,95.19
2023-04-13T21:38:49.596Z,95.5
2023-04-13T21:40:51.178Z,95.46
2023-04-13T21:44:53.591Z,95.5
2023-04-13T21:46:55.160Z,95.38
2023-04-13T21:50:58.796Z,95.69
2023-04-13T21:55:02.338Z,95.84
2023-04-13T21:57:03.511Z,95.92
2023-04-13T22:01:06.516Z,95.97
2023-04-13T22:03:08.409Z,95.87
2023-04-13T22:07:11.468Z,96.07
2023-04-13T22:11:15.115Z,96.26
2023-04-13T22:13:16.682Z,96.45
2023-04-13T22:17:19.842Z,96.52
2023-04-13T22:21:22.745Z,96.54
2023-04-13T22:23:24.178Z,96.54
2023-04-13T22:27:27.406Z,96.67
2023-04-13T22:29:29.252Z,96.54
2023-04-13T22:33:32.254Z,96.72
2023-04-13T22:37:34.845Z,96.7
2023-04-13T22:39:36.049Z,96.68
2023-04-13T22:43:39.081Z,96.88
2023-04-13T22:45:40.813Z,96.97
2023-04-13T22:49:44.507Z,96.93
2023-04-13T22:53:46.841Z,96.93
2023-04-13T22:55:47.938Z,96.88
2023-04-13T22:59:50.978Z,97.1
2023-04-13T23:03:53.628Z,97.17
2023-04-13T23:05:55.484Z,97.02
2023-04-13T23:09:58.316Z,97.12
2023-04-13T23:12:00.178Z,97.18
2023-04-13T23:16:02.801Z,96.96
2023-04-13T23:20:05.601Z,96.91
2023-04-13T23:22:07.093Z,96.87
2023-04-13T23:26:10.478Z,96.82
2023-04-13T23:28:11.768Z,96.9
2023-04-13T23:32:14.892Z,97.01
2023-04-13T23:36:18.313Z,97.08
2023-04-13T23:38:20.316Z,97.08
2023-04-13T23:42:22.718Z,96.92
2023-04-13T23:46:26.339Z,97.18
2023-04-13T23:48:28.043Z,97.25
2023-04-13T23:52:30.664Z,97.43
2023-04-13T23:54:32.699Z,97.45
2023-04-13T23:58:36.072Z,97.7
